createdAt,value
2023-02-14T00:01:58.576Z,100796.14
2023-02-14T00:05:01.267Z,100792.13
2023-02-14T00:08:03.914Z,100791.40
2023-02-14T00:11:08.532Z,100785.33
2023-02-14T00:14:30.931Z,100788.66
2023-02-14T00:17:33.551Z,100778.90
2023-02-14T00:20:37.006Z,100788.59
2023-02-14T00:23:39.633Z,100786.84
2023-02-14T00:26:42.796Z,100790.23
2023-02-14T00:29:45.596Z,100787.22
2023-02-14T00:32:48.213Z,100784.97
2023-02-14T00:35:52.769Z,100792.56
2023-02-14T00:38:56.892Z,100797.77
2023-02-14T00:41:59.562Z,100804.16
2023-02-14T00:45:02.345Z,100801.93
2023-02-14T00:48:05.039Z,100797.20
2023-02-14T00:51:08.178Z,100794.81
2023-02-14T00:54:10.876Z,100797.36
2023-02-14T00:57:13.553Z,100801.04
2023-02-14T01:00:16.547Z,100801.28
2023-02-14T01:03:19.313Z,100794.74
2023-02-14T01:06:22.015Z,100793.99
2023-02-14T01:09:25.727Z,100794.03
2023-02-14T01:12:29.204Z,100790.36
2023-02-14T01:15:32.524Z,100786.16
2023-02-14T01:18:35.479Z,100785.84
2023-02-14T01:21:38.235Z,100791.95
2023-02-14T01:24:40.865Z,100790.55
2023-02-14T01:27:43.687Z,100787.13
2023-02-14T01:30:46.369Z,100786.20
2023-02-14T01:33:49.397Z,100782.98
2023-02-14T01:36:52.043Z,100779.39
2023-02-14T01:39:54.797Z,100778.35
2023-02-14T01:42:57.463Z,100778.99
2023-02-14T01:46:00.244Z,100785.21
2023-02-14T01:49:02.988Z,100786.27
2023-02-14T01:52:05.642Z,100784.59
2023-02-14T01:55:10.141Z,100787.52
2023-02-14T01:58:19.538Z,100788.11
2023-02-14T02:01:24.010Z,100792.52
2023-02-14T02:04:29.684Z,100788.80
2023-02-14T02:07:32.569Z,100786.30
2023-02-14T02:10:35.230Z,100781.36
2023-02-14T02:13:37.905Z,100776.42
2023-02-14T02:16:40.535Z,100780.41
2023-02-14T02:19:43.174Z,100778.91
2023-02-14T02:22:54.668Z,100781.01
2023-02-14T02:26:15.822Z,100790.21
2023-02-14T02:29:30.496Z,100791.52
2023-02-14T02:32:48.696Z,100792.67
2023-02-14T02:35:54.050Z,100789.07
2023-02-14T02:39:09.041Z,100782.54
2023-02-14T02:42:30.422Z,100787.71
2023-02-14T02:46:04.078Z,100788.59
2023-02-14T02:49:44.213Z,100790.28
2023-02-14T02:53:06.435Z,100785.04
2023-02-14T02:56:33.380Z,100797.91
2023-02-14T02:59:40.458Z,100805.55
2023-02-14T03:03:05.710Z,100810.06
2023-02-14T03:06:08.537Z,100809.27
2023-02-14T03:09:31.140Z,100811.31
2023-02-14T03:12:33.815Z,100814.15
2023-02-14T03:15:42.391Z,100819.24
2023-02-14T03:19:08.346Z,100824.58
2023-02-14T03:22:20.212Z,100837.42
2023-02-14T03:25:26.063Z,100835.93
2023-02-14T03:28:58.372Z,100842.57
2023-02-14T03:32:02.833Z,100845.23
2023-02-14T03:35:18.563Z,100845.19
2023-02-14T03:38:28.178Z,100843.48
2023-02-14T03:41:34.847Z,100827.50
2023-02-14T03:44:39.760Z,100825.54
2023-02-14T03:47:44.006Z,100823.41
2023-02-14T03:50:48.996Z,100817.91
2023-02-14T03:53:53.683Z,100817.77
2023-02-14T03:57:00.539Z,100827.17
2023-02-14T04:00:04.421Z,100831.27
2023-02-14T04:03:17.308Z,100832.35
2023-02-14T04:06:19.982Z,100838.34
2023-02-14T04:09:22.613Z,100841.62
2023-02-14T04:12:37.061Z,100845.30
2023-02-14T04:15:40.581Z,100839.54
2023-02-14T04:19:01.825Z,100835.65
2023-02-14T04:22:04.490Z,100835.71
2023-02-14T04:25:07.392Z,100834.14
2023-02-14T04:28:10.120Z,100834.71
2023-02-14T04:31:12.946Z,100830.90
2023-02-14T04:34:15.703Z,100832.67
2023-02-14T04:37:19.407Z,100830.91
2023-02-14T04:40:22.217Z,100836.63
2023-02-14T04:43:24.952Z,100839.27
2023-02-14T04:46:27.641Z,100834.34
2023-02-14T04:49:30.489Z,100831.73
2023-02-14T04:52:33.486Z,100834.52
2023-02-14T04:55:36.114Z,100831.69
2023-02-14T04:58:38.788Z,100836.31
2023-02-14T05:01:41.836Z,100838.44
2023-02-14T05:04:44.536Z,100837.36
2023-02-14T05:07:47.926Z,100834.77
2023-02-14T05:10:50.763Z,100843.95
2023-02-14T05:13:53.375Z,100844.86
2023-02-14T05:16:56.035Z,100844.23
2023-02-14T05:19:58.780Z,100845.31
2023-02-14T05:23:03.549Z,100843.15
2023-02-14T05:26:06.306Z,100844.08
2023-02-14T05:29:09.144Z,100842.70
2023-02-14T05:32:11.889Z,100846.54
2023-02-14T05:35:14.702Z,100848.61
2023-02-14T05:38:17.841Z,100851.57
2023-02-14T05:41:20.477Z,100853.02
2023-02-14T05:44:23.496Z,100864.33
2023-02-14T05:47:26.158Z,100875.08
2023-02-14T05:50:29.296Z,100878.58
2023-02-14T05:53:33.695Z,100880.13
2023-02-14T05:56:36.348Z,100880.05
2023-02-14T05:59:38.988Z,100883.99
2023-02-14T06:02:41.610Z,100885.21
2023-02-14T06:05:44.448Z,100887.91
2023-02-14T06:08:47.101Z,100881.84
2023-02-14T06:11:49.835Z,100889.76
2023-02-14T06:14:52.532Z,100889.80
2023-02-14T06:17:56.237Z,100884.96
2023-02-14T06:20:59.243Z,100890.55
2023-02-14T06:24:02.356Z,100897.84
2023-02-14T06:27:04.977Z,100888.05
2023-02-14T06:30:08.128Z,100890.95
2023-02-14T06:33:10.798Z,100901.88
2023-02-14T06:36:13.891Z,100900.74
2023-02-14T06:39:16.506Z,100900.33
2023-02-14T06:42:19.300Z,100900.95
2023-02-14T06:45:21.942Z,100901.08
2023-02-14T06:48:24.611Z,100898.29
2023-02-14T06:51:27.219Z,100907.98
2023-02-14T06:54:29.863Z,100908.31
2023-02-14T06:57:32.572Z,100910.10
2023-02-14T07:00:35.478Z,100914.05
2023-02-14T07:03:38.187Z,100908.39
2023-02-14T07:06:40.938Z,100908.00
2023-02-14T07:09:43.622Z,100905.81
2023-02-14T07:12:46.335Z,100908.64
2023-02-14T07:15:49.049Z,100910.09
2023-02-14T07:18:51.718Z,100908.86
2023-02-14T07:21:54.336Z,100910.48
2023-02-14T07:24:56.976Z,100915.27
2023-02-14T07:27:59.696Z,100917.02
2023-02-14T07:31:03.417Z,100918.98
2023-02-14T07:34:06.524Z,100925.95
2023-02-14T07:37:09.221Z,100922.83
2023-02-14T07:40:15.032Z,100926.39
2023-02-14T07:43:20.144Z,100923.92
2023-02-14T07:46:22.977Z,100922.17
2023-02-14T07:49:25.840Z,100921.25
2023-02-14T07:52:28.511Z,100917.92
2023-02-14T07:55:31.195Z,100920.27
2023-02-14T07:58:33.969Z,100922.77
2023-02-14T08:01:36.607Z,100923.34
2023-02-14T08:04:39.343Z,100923.14
2023-02-14T08:07:43.208Z,100932.61
2023-02-14T08:10:45.901Z,100932.91
2023-02-14T08:13:48.560Z,100929.20
2023-02-14T08:16:51.207Z,100933.83
2023-02-14T08:19:53.817Z,100941.13
2023-02-14T08:22:56.565Z,100945.28
2023-02-14T08:25:59.245Z,100940.80
2023-02-14T08:29:02.061Z,100949.20
2023-02-14T08:32:04.869Z,100950.93
2023-02-14T08:35:08.094Z,100953.13
2023-02-14T08:38:10.858Z,100952.01
2023-02-14T08:41:14.473Z,100957.30
2023-02-14T08:44:17.167Z,100959.35
2023-02-14T08:47:19.781Z,100955.84
2023-02-14T08:50:22.536Z,100950.91
2023-02-14T08:53:25.188Z,100951.13
2023-02-14T08:56:27.829Z,100953.00
2023-02-14T08:59:30.454Z,100958.14
2023-02-14T09:02:33.092Z,100957.79
2023-02-14T09:05:35.939Z,100957.90
2023-02-14T09:08:39.309Z,100961.70
2023-02-14T09:11:41.971Z,100965.84
2023-02-14T09:14:44.800Z,100964.45
2023-02-14T09:17:48.145Z,100960.95
2023-02-14T09:20:50.853Z,100965.67
2023-02-14T09:23:53.893Z,100968.46
2023-02-14T09:27:00.308Z,100966.79
2023-02-14T09:30:03.344Z,100969.16
2023-02-14T09:33:06.189Z,100975.73
2023-02-14T09:36:27.771Z,100973.91
2023-02-14T09:39:30.429Z,100978.37
2023-02-14T09:42:33.016Z,100987.70
2023-02-14T09:45:36.048Z,100985.71
2023-02-14T09:48:41.799Z,100984.34
2023-02-14T09:51:50.140Z,100990.05
2023-02-14T09:54:55.354Z,100992.97
2023-02-14T09:58:19.348Z,100989.00
2023-02-14T10:01:34.183Z,100989.24
2023-02-14T10:04:39.585Z,100992.20
2023-02-14T10:07:45.830Z,100991.58
2023-02-14T10:10:52.732Z,100984.02
2023-02-14T10:14:00.336Z,100989.15
2023-02-14T10:17:07.121Z,100993.46
2023-02-14T10:20:36.233Z,100996.17
2023-02-14T10:23:45.433Z,100993.00
2023-02-14T10:26:49.396Z,101000.55
2023-02-14T10:29:52.215Z,100997.41
2023-02-14T10:33:10.548Z,100992.13
2023-02-14T10:36:17.099Z,100988.96
2023-02-14T10:39:45.793Z,100988.42
2023-02-14T10:42:48.517Z,100992.35
2023-02-14T10:45:58.638Z,100990.27
2023-02-14T10:49:16.814Z,100984.62
2023-02-14T10:52:28.377Z,100984.50
2023-02-14T10:55:46.416Z,100980.65
2023-02-14T10:58:50.392Z,100977.92
2023-02-14T11:01:53.952Z,100978.01
2023-02-14T11:04:57.588Z,100982.95
2023-02-14T11:08:00.639Z,100981.50
2023-02-14T11:11:08.158Z,100973.64
2023-02-14T11:17:27.585Z,100965.84
2023-02-14T11:20:31.378Z,100963.70
2023-02-14T11:23:54.219Z,100962.05
2023-02-14T11:27:04.468Z,100960.84
2023-02-14T11:30:18.568Z,100960.13
2023-02-14T11:33:34.157Z,100961.95
2023-02-14T11:36:40.990Z,100955.16
2023-02-14T11:39:43.741Z,100956.36
2023-02-14T11:42:51.629Z,100953.06
2023-02-14T11:46:06.418Z,100954.91
2023-02-14T11:49:24.234Z,100952.80
2023-02-14T11:52:29.787Z,100951.20
2023-02-14T11:55:36.744Z,100955.02
2023-02-14T11:58:41.804Z,100951.21
2023-02-14T12:01:45.629Z,100953.95
2023-02-14T12:04:50.206Z,100952.88
2023-02-14T12:07:54.483Z,100952.36
2023-02-14T12:11:02.441Z,100957.91
2023-02-14T12:14:06.089Z,100942.59
2023-02-14T12:17:11.663Z,100943.50
2023-02-14T12:20:16.706Z,100942.11
2023-02-14T12:23:25.527Z,100936.73
2023-02-14T12:26:33.988Z,100929.52
2023-02-14T12:29:39.082Z,100931.42
2023-02-14T12:32:49.610Z,100935.66
2023-02-14T12:36:03.621Z,100936.35
2023-02-14T12:39:30.444Z,100933.98
2023-02-14T12:42:53.428Z,100940.57
2023-02-14T12:45:58.866Z,100935.73
2023-02-14T12:49:20.290Z,100937.08
2023-02-14T12:52:45.624Z,100934.25
2023-02-14T12:55:54.157Z,100934.56
2023-02-14T12:59:15.414Z,100937.86
2023-02-14T13:02:24.269Z,100935.19
2023-02-14T13:05:42.207Z,100934.55
2023-02-14T13:09:05.031Z,100935.98
2023-02-14T13:12:07.839Z,100926.96
2023-02-14T13:15:29.689Z,100929.54
2023-02-14T13:18:35.379Z,100933.48
2023-02-14T13:21:39.285Z,100929.47
2023-02-14T13:24:43.671Z,100927.60
2023-02-14T13:27:46.361Z,100921.80
2023-02-14T13:30:49.220Z,100921.13
2023-02-14T13:33:54.165Z,100927.66
2023-02-14T13:36:58.111Z,100927.75
2023-02-14T13:40:06.118Z,100927.90
2023-02-14T13:43:08.794Z,100923.17
2023-02-14T13:46:11.964Z,100920.16
2023-02-14T13:49:14.546Z,100918.69
2023-02-14T13:52:36.103Z,100916.20
2023-02-14T13:55:43.887Z,100917.59
2023-02-14T13:58:49.638Z,100920.55
2023-02-14T14:01:52.271Z,100920.48
2023-02-14T14:04:54.939Z,100923.62
2023-02-14T14:08:16.317Z,100924.19
2023-02-14T14:11:21.829Z,100926.15
2023-02-14T14:14:30.200Z,100930.91
2023-02-14T14:17:34.341Z,100935.08
2023-02-14T14:20:42.582Z,100930.73
2023-02-14T14:23:45.207Z,100931.73
2023-02-14T14:26:50.119Z,100933.41
2023-02-14T14:29:57.387Z,100933.55
2023-02-14T14:33:13.817Z,100927.89
2023-02-14T14:36:22.665Z,100927.81
2023-02-14T14:39:27.489Z,100927.91
2023-02-14T14:42:32.502Z,100929.58
2023-02-14T14:45:35.506Z,100928.33
2023-02-14T14:48:44.140Z,100926.19
2023-02-14T14:51:48.350Z,100923.83
2023-02-14T14:54:51.259Z,100925.17
2023-02-14T14:57:55.467Z,100922.09
2023-02-14T15:00:58.136Z,100923.45
2023-02-14T15:04:25.104Z,100919.30
2023-02-14T15:07:27.913Z,100919.86
2023-02-14T15:10:31.543Z,100919.86
2023-02-14T15:13:49.570Z,100918.73
2023-02-14T15:16:59.022Z,100915.24
2023-02-14T15:20:04.326Z,100919.77
2023-02-14T15:23:07.074Z,100921.54
2023-02-14T15:26:17.914Z,100923.69
2023-02-14T15:29:22.794Z,100918.47
2023-02-14T15:32:26.455Z,100918.71
2023-02-14T15:35:30.806Z,100921.17
2023-02-14T15:38:36.795Z,100926.06
2023-02-14T15:41:42.804Z,100931.58
2023-02-14T15:44:45.434Z,100932.98
2023-02-14T15:47:52.087Z,100939.12
2023-02-14T15:50:56.118Z,100939.21
2023-02-14T15:54:04.309Z,100935.34
2023-02-14T15:57:07.900Z,100939.94
2023-02-14T16:00:17.366Z,100942.11
2023-02-14T16:03:21.817Z,100943.90
2023-02-14T16:06:33.891Z,100951.46
2023-02-14T16:09:37.728Z,100952.73
2023-02-14T16:12:42.144Z,100955.36
2023-02-14T16:15:57.448Z,100956.21
2023-02-14T16:19:00.298Z,100951.92
2023-02-14T16:22:03.333Z,100952.30
2023-02-14T16:25:07.251Z,100956.34
2023-02-14T16:28:09.864Z,100957.89
2023-02-14T16:31:15.722Z,100957.84
2023-02-14T16:34:18.675Z,100961.93
2023-02-14T16:37:22.786Z,100959.13
2023-02-14T16:40:26.771Z,100960.61
2023-02-14T16:43:29.434Z,100960.16
2023-02-14T16:46:35.541Z,100961.74
2023-02-14T16:49:38.719Z,100962.83
2023-02-14T16:52:42.161Z,100964.59
2023-02-14T16:55:44.845Z,100967.46
2023-02-14T16:58:47.896Z,100964.59
2023-02-14T17:01:50.759Z,100962.85
2023-02-14T17:04:54.173Z,100967.39
2023-02-14T17:07:56.842Z,100968.09
2023-02-14T17:11:02.243Z,100967.94
2023-02-14T17:14:05.313Z,100963.66
2023-02-14T17:17:09.269Z,100965.98
2023-02-14T17:20:12.516Z,100967.92
2023-02-14T17:23:15.600Z,100968.53
2023-02-14T17:26:19.881Z,100972.16
2023-02-14T17:29:22.772Z,100971.70
2023-02-14T17:32:25.507Z,100968.48
2023-02-14T17:35:28.421Z,100973.05
2023-02-14T17:38:31.436Z,100968.28
2023-02-14T17:41:34.050Z,100971.29
2023-02-14T17:44:37.672Z,100972.95
2023-02-14T17:47:41.132Z,100967.75
2023-02-14T17:50:43.894Z,100967.80
2023-02-14T17:53:47.257Z,100965.11
2023-02-14T17:56:50.071Z,100961.16
2023-02-14T17:59:53.720Z,100964.80
2023-02-14T18:02:56.429Z,100961.50
2023-02-14T18:05:59.567Z,100964.11
2023-02-14T18:09:04.703Z,100960.92
2023-02-14T18:12:07.477Z,100958.92
2023-02-14T18:15:10.239Z,100959.48
2023-02-14T18:18:13.881Z,100961.81
2023-02-14T18:21:19.465Z,100963.36
2023-02-14T18:24:22.371Z,100960.92
2023-02-14T18:27:25.825Z,100960.27
2023-02-14T18:30:28.534Z,100958.68
2023-02-14T18:33:31.395Z,100960.86
2023-02-14T18:36:35.891Z,100963.20
2023-02-14T18:39:38.574Z,100962.64
2023-02-14T18:42:41.273Z,100963.68
2023-02-14T18:45:43.889Z,100962.30
2023-02-14T18:48:46.928Z,100962.45
2023-02-14T18:51:49.651Z,100965.70
2023-02-14T18:54:52.264Z,100956.11
2023-02-14T18:57:54.961Z,100957.69
2023-02-14T19:00:58.029Z,100961.95
2023-02-14T19:04:01.433Z,100964.51
2023-02-14T19:07:04.572Z,100960.45
2023-02-14T19:10:07.618Z,100951.70
2023-02-14T19:13:10.317Z,100954.58
2023-02-14T19:16:14.538Z,100957.70
2023-02-14T19:19:18.187Z,100957.08
2023-02-14T19:22:21.342Z,100955.16
2023-02-14T19:25:24.009Z,100956.22
2023-02-14T19:28:28.168Z,100955.59
2023-02-14T19:31:36.275Z,100955.48
2023-02-14T19:34:39.236Z,100954.39
2023-02-14T19:37:41.888Z,100956.67
2023-02-14T19:40:45.248Z,100954.33
2023-02-14T19:43:48.870Z,100954.09
2023-02-14T19:46:54.370Z,100958.17
2023-02-14T19:49:57.003Z,100958.39
2023-02-14T19:52:59.643Z,100955.30
2023-02-14T19:56:02.526Z,100955.46
2023-02-14T19:59:09.389Z,100960.71
2023-02-14T20:02:16.802Z,100958.64
2023-02-14T20:05:20.044Z,100955.91
2023-02-14T20:08:22.687Z,100953.20
2023-02-14T20:11:31.248Z,100947.58
2023-02-14T20:14:47.146Z,100952.66
2023-02-14T20:17:53.419Z,100955.86
2023-02-14T20:21:02.462Z,100951.97
2023-02-14T20:24:06.181Z,100950.17
2023-02-14T20:27:08.878Z,100958.39
2023-02-14T20:30:12.003Z,100958.05
2023-02-14T20:33:14.745Z,100956.97
2023-02-14T20:36:17.508Z,100952.71
2023-02-14T20:39:21.298Z,100950.63
2023-02-14T20:42:24.369Z,100949.90
2023-02-14T20:45:26.982Z,100948.06
2023-02-14T20:48:30.143Z,100947.65
2023-02-14T20:51:33.538Z,100948.10
2023-02-14T20:54:38.870Z,100949.12
2023-02-14T20:57:41.675Z,100947.21
2023-02-14T21:00:44.504Z,100944.25
2023-02-14T21:03:50.804Z,100943.94
2023-02-14T21:06:53.805Z,100942.27
2023-02-14T21:09:59.574Z,100947.10
2023-02-14T21:13:02.275Z,100945.36
2023-02-14T21:16:06.486Z,100943.72
2023-02-14T21:19:09.229Z,100944.04
2023-02-14T21:22:11.885Z,100940.25
2023-02-14T21:25:14.617Z,100940.34
2023-02-14T21:28:17.496Z,100934.61
2023-02-14T21:31:21.875Z,100931.90
2023-02-14T21:34:26.913Z,100924.41
2023-02-14T21:37:29.550Z,100919.23
2023-02-14T21:40:32.225Z,100924.88
2023-02-14T21:43:35.980Z,100928.01
2023-02-14T21:46:39.400Z,100929.64
2023-02-14T21:50:00.923Z,100925.21
2023-02-14T21:53:03.831Z,100926.30
2023-02-14T21:56:09.603Z,100921.86
2023-02-14T21:59:12.260Z,100921.52
2023-02-14T22:02:14.892Z,100916.96
2023-02-14T22:05:17.831Z,100915.50
2023-02-14T22:08:20.439Z,100913.43
2023-02-14T22:11:24.142Z,100913.13
2023-02-14T22:14:29.324Z,100910.31
2023-02-14T22:17:32.823Z,100910.85
2023-02-14T22:20:35.597Z,100915.86
2023-02-14T22:23:38.829Z,100913.69
2023-02-14T22:26:41.491Z,100906.04
2023-02-14T22:29:44.154Z,100910.20
2023-02-14T22:32:46.770Z,100912.83
2023-02-14T22:35:53.879Z,100910.75
2023-02-14T22:38:56.526Z,100915.36
2023-02-14T22:41:59.168Z,100914.31
2023-02-14T22:45:02.097Z,100916.70
2023-02-14T22:48:05.096Z,100913.67
2023-02-14T22:51:11.861Z,100912.01
2023-02-14T22:54:15.571Z,100908.52
2023-02-14T22:57:20.606Z,100906.24
2023-02-14T23:00:24.024Z,100909.19
2023-02-14T23:03:26.688Z,100905.09
2023-02-14T23:06:30.106Z,100906.46
2023-02-14T23:09:32.856Z,100903.20
2023-02-14T23:12:54.230Z,100903.85
2023-02-14T23:16:15.651Z,100901.81
2023-02-14T23:19:38.873Z,100897.13
2023-02-14T23:22:41.519Z,100893.25
2023-02-14T23:25:44.213Z,100891.42
2023-02-14T23:28:46.811Z,100892.01
2023-02-14T23:31:49.718Z,100887.63
2023-02-14T23:34:52.544Z,100886.88
2023-02-14T23:37:55.225Z,100890.25
2023-02-14T23:41:16.706Z,100885.38
2023-02-14T23:44:19.718Z,100887.00
2023-02-14T23:47:22.329Z,100885.20
2023-02-14T23:50:25.041Z,100888.73
2023-02-14T23:53:27.712Z,100885.44
2023-02-14T23:56:30.402Z,100883.85
2023-02-14T23:59:33.554Z,100883.14
